createdAt,value
2023-02-17T00:02:01.191Z,9.00
2023-02-17T00:04:31.121Z,9.00
2023-02-17T00:07:01.002Z,9.00
2023-02-17T00:09:30.766Z,8.90
2023-02-17T00:12:00.465Z,8.90
2023-02-17T00:14:30.278Z,9.00
2023-02-17T00:17:02.614Z,9.00
2023-02-17T00:19:32.442Z,9.00
2023-02-17T00:22:03.832Z,9.00
2023-02-17T00:24:35.591Z,9.00
2023-02-17T00:27:05.490Z,9.00
2023-02-17T00:29:35.646Z,9.00
2023-02-17T00:32:10.393Z,9.00
2023-02-17T00:34:40.679Z,9.00
2023-02-17T00:37:10.376Z,9.00
2023-02-17T00:39:40.183Z,9.20
2023-02-17T00:42:09.946Z,9.20
2023-02-17T00:44:39.651Z,9.10
2023-02-17T00:47:12.006Z,9.20
2023-02-17T00:49:41.928Z,9.10
2023-02-17T00:52:11.759Z,9.10
2023-02-17T00:54:42.071Z,9.20
2023-02-17T00:57:14.254Z,9.10
2023-02-17T00:59:44.084Z,9.10
2023-02-17T01:02:16.409Z,9.10
2023-02-17T01:04:46.225Z,9.20
2023-02-17T01:07:16.035Z,9.30
2023-02-17T01:09:45.770Z,9.20
2023-02-17T01:12:15.689Z,9.20
2023-02-17T01:14:45.436Z,9.30
2023-02-17T01:17:18.328Z,9.20
2023-02-17T01:19:48.059Z,9.20
2023-02-17T01:22:18.034Z,9.10
2023-02-17T01:24:47.823Z,9.00
2023-02-17T01:27:17.545Z,9.00
2023-02-17T01:29:47.586Z,8.90
2023-02-17T01:32:20.003Z,8.80
2023-02-17T01:34:50.332Z,9.00
2023-02-17T01:37:20.110Z,9.00
2023-02-17T01:39:49.862Z,8.90
2023-02-17T01:42:20.972Z,8.90
2023-02-17T01:45:20.851Z,9.00
2023-02-17T01:47:56.837Z,8.90
2023-02-17T01:50:30.874Z,8.90
2023-02-17T01:53:02.772Z,9.00
2023-02-17T01:55:34.102Z,9.00
2023-02-17T01:58:06.681Z,9.00
2023-02-17T02:00:38.500Z,8.90
2023-02-17T02:03:15.317Z,9.00
2023-02-17T02:05:45.768Z,9.00
2023-02-17T02:08:16.699Z,9.00
2023-02-17T02:10:46.518Z,9.10
2023-02-17T02:13:16.330Z,9.10
2023-02-17T02:15:55.138Z,9.00
2023-02-17T02:18:39.697Z,9.00
2023-02-17T02:21:39.687Z,8.90
2023-02-17T02:24:25.670Z,9.00
2023-02-17T02:27:31.282Z,8.90
2023-02-17T02:30:21.520Z,9.00
2023-02-17T02:33:06.083Z,8.90
2023-02-17T02:35:44.006Z,9.00
2023-02-17T02:38:17.618Z,8.90
2023-02-17T02:40:52.701Z,8.90
2023-02-17T02:43:22.868Z,8.90
2023-02-17T02:45:52.726Z,8.90
2023-02-17T02:48:25.161Z,8.90
2023-02-17T02:51:17.269Z,8.80
2023-02-17T02:54:03.428Z,8.80
2023-02-17T02:56:50.735Z,8.80
2023-02-17T02:59:31.907Z,8.80
2023-02-17T03:02:11.273Z,8.80
2023-02-17T03:04:53.222Z,8.80
2023-02-17T03:07:27.464Z,8.80
2023-02-17T03:10:00.299Z,8.70
2023-02-17T03:12:31.286Z,8.80
2023-02-17T03:15:05.338Z,8.80
2023-02-17T03:17:35.790Z,8.80
2023-02-17T03:20:10.571Z,8.80
2023-02-17T03:22:44.149Z,8.80
2023-02-17T03:25:13.903Z,8.80
2023-02-17T03:27:43.620Z,8.80
2023-02-17T03:30:14.795Z,8.90
2023-02-17T03:32:45.013Z,8.90
2023-02-17T03:35:17.715Z,8.90
2023-02-17T03:37:47.732Z,8.80
2023-02-17T03:40:17.479Z,8.90
2023-02-17T03:42:47.375Z,8.90
2023-02-17T03:45:17.346Z,8.90
2023-02-17T03:47:47.097Z,8.90
2023-02-17T03:50:19.527Z,8.90
2023-02-17T03:52:49.302Z,9.10
2023-02-17T03:55:19.194Z,9.20
2023-02-17T03:57:48.982Z,9.10
2023-02-17T04:00:19.477Z,9.20
2023-02-17T04:02:49.239Z,9.20
2023-02-17T04:05:21.655Z,9.40
2023-02-17T04:07:51.562Z,9.30
2023-02-17T04:10:21.996Z,9.30
2023-02-17T04:12:51.735Z,9.40
2023-02-17T04:15:21.690Z,9.40
2023-02-17T04:17:51.471Z,9.50
2023-02-17T04:20:24.017Z,9.50
2023-02-17T04:22:53.734Z,9.40
2023-02-17T04:25:23.496Z,9.40
2023-02-17T04:27:53.207Z,9.40
2023-02-17T04:30:23.389Z,9.50
2023-02-17T04:32:53.213Z,9.40
2023-02-17T04:35:26.196Z,9.40
2023-02-17T04:37:56.561Z,9.50
2023-02-17T04:40:26.350Z,9.50
2023-02-17T04:42:56.195Z,9.40
2023-02-17T04:45:26.347Z,9.40
2023-02-17T04:47:56.134Z,9.40
2023-02-17T04:50:28.536Z,9.40
2023-02-17T04:52:58.394Z,9.30
2023-02-17T04:55:29.675Z,9.40
2023-02-17T04:57:59.458Z,9.30
2023-02-17T05:00:29.339Z,9.30
2023-02-17T05:02:59.150Z,9.40
2023-02-17T05:05:31.555Z,9.40
2023-02-17T05:08:01.388Z,9.40
2023-02-17T05:10:31.316Z,9.40
2023-02-17T05:13:01.026Z,9.40
2023-02-17T05:15:32.036Z,9.40
2023-02-17T05:18:02.958Z,9.40
2023-02-17T05:20:35.347Z,9.40
2023-02-17T05:23:05.123Z,9.50
2023-02-17T05:25:35.017Z,9.50
2023-02-17T05:28:04.814Z,9.50
2023-02-17T05:30:34.764Z,9.50
2023-02-17T05:33:04.614Z,9.50
2023-02-17T05:35:37.274Z,9.50
2023-02-17T05:38:07.033Z,9.50
2023-02-17T05:40:36.762Z,9.50
2023-02-17T05:43:06.552Z,9.50
2023-02-17T05:45:36.352Z,9.40
2023-02-17T05:48:06.250Z,9.40
2023-02-17T05:50:38.538Z,9.40
2023-02-17T05:53:08.311Z,9.30
2023-02-17T05:55:38.206Z,9.30
2023-02-17T05:58:08.072Z,9.30
2023-02-17T06:00:37.897Z,9.30
2023-02-17T06:03:07.717Z,9.40
2023-02-17T06:05:40.086Z,9.40
2023-02-17T06:08:10.382Z,9.40
2023-02-17T06:10:40.157Z,9.40
2023-02-17T06:13:09.898Z,9.40
2023-02-17T06:15:39.667Z,9.40
2023-02-17T06:18:09.449Z,9.50
2023-02-17T06:20:41.919Z,9.50
2023-02-17T06:23:11.734Z,9.60
2023-02-17T06:25:41.579Z,9.60
2023-02-17T06:28:11.376Z,9.60
2023-02-17T06:30:41.264Z,9.60
2023-02-17T06:33:11.050Z,9.60
2023-02-17T06:35:44.536Z,9.60
2023-02-17T06:38:14.284Z,9.60
2023-02-17T06:40:44.011Z,9.60
2023-02-17T06:43:14.002Z,9.60
2023-02-17T06:45:43.921Z,9.60
2023-02-17T06:48:13.692Z,9.60
2023-02-17T06:50:46.114Z,9.60
2023-02-17T06:53:15.905Z,9.60
2023-02-17T06:55:46.749Z,9.60
2023-02-17T06:58:16.506Z,9.60
2023-02-17T07:00:46.354Z,9.50
2023-02-17T07:03:16.093Z,9.60
2023-02-17T07:05:48.476Z,9.60
2023-02-17T07:08:18.261Z,9.60
2023-02-17T07:10:47.968Z,9.60
2023-02-17T07:13:17.684Z,9.60
2023-02-17T07:15:47.412Z,9.60
2023-02-17T07:18:17.210Z,9.60
2023-02-17T07:20:49.665Z,9.70
2023-02-17T07:23:19.798Z,9.70
2023-02-17T07:25:49.624Z,9.80
2023-02-17T07:28:19.504Z,9.80
2023-02-17T07:30:49.373Z,9.80
2023-02-17T07:33:19.155Z,9.80
2023-02-17T07:35:51.477Z,9.80
2023-02-17T07:38:21.223Z,9.90
2023-02-17T07:40:50.953Z,9.90
2023-02-17T07:43:20.667Z,9.90
2023-02-17T07:45:50.445Z,10.00
2023-02-17T07:48:20.188Z,10.00
2023-02-17T07:50:52.594Z,10.00
2023-02-17T07:53:22.394Z,10.10
2023-02-17T07:55:52.234Z,10.10
2023-02-17T07:58:22.056Z,10.10
2023-02-17T08:00:51.815Z,10.20
2023-02-17T08:03:21.543Z,10.20
2023-02-17T08:05:53.898Z,10.30
2023-02-17T08:08:36.116Z,10.40
2023-02-17T08:11:18.490Z,10.50
2023-02-17T08:13:48.332Z,10.60
2023-02-17T08:16:18.129Z,10.70
2023-02-17T08:18:47.948Z,10.80
2023-02-17T08:21:20.349Z,10.80
2023-02-17T08:23:50.150Z,10.80
2023-02-17T08:26:21.166Z,10.80
2023-02-17T08:28:51.781Z,10.80
2023-02-17T08:31:24.101Z,10.80
2023-02-17T08:33:54.070Z,10.80
2023-02-17T08:36:27.416Z,10.80
2023-02-17T08:38:58.016Z,10.80
2023-02-17T08:41:30.022Z,10.80
2023-02-17T08:44:00.838Z,10.80
2023-02-17T08:46:32.539Z,10.80
2023-02-17T08:49:02.291Z,10.90
2023-02-17T08:51:34.686Z,11.00
2023-02-17T08:54:04.776Z,10.90
2023-02-17T08:56:34.771Z,10.90
2023-02-17T08:59:04.864Z,10.90
2023-02-17T09:01:34.804Z,10.80
2023-02-17T09:04:05.753Z,10.80
2023-02-17T09:06:39.702Z,10.80
2023-02-17T09:09:11.947Z,10.80
2023-02-17T09:11:41.957Z,10.70
2023-02-17T09:14:12.237Z,10.70
2023-02-17T09:16:42.234Z,10.80
2023-02-17T09:19:12.051Z,10.80
2023-02-17T09:21:44.957Z,10.80
2023-02-17T09:24:14.828Z,10.80
2023-02-17T09:26:44.655Z,10.90
2023-02-17T09:29:14.599Z,10.90
2023-02-17T09:31:46.168Z,11.00
2023-02-17T09:34:16.845Z,11.10
2023-02-17T09:36:50.371Z,11.10
2023-02-17T09:39:20.281Z,11.20
2023-02-17T09:41:54.774Z,11.30
2023-02-17T09:44:27.193Z,11.30
2023-02-17T09:47:03.198Z,11.30
2023-02-17T09:49:39.600Z,11.30
2023-02-17T09:52:16.853Z,11.40
2023-02-17T09:54:56.597Z,11.50
2023-02-17T09:57:31.708Z,11.70
2023-02-17T10:00:09.842Z,11.80
2023-02-17T10:02:48.277Z,11.70
2023-02-17T10:05:22.984Z,11.80
2023-02-17T10:07:59.989Z,11.80
2023-02-17T10:10:37.373Z,11.90
2023-02-17T10:13:09.502Z,12.00
2023-02-17T10:15:43.624Z,12.20
2023-02-17T10:18:18.928Z,12.30
2023-02-17T10:20:55.041Z,12.50
2023-02-17T10:23:29.394Z,12.70
2023-02-17T10:26:13.569Z,12.80
2023-02-17T10:28:53.369Z,12.70
2023-02-17T10:31:31.245Z,12.90
2023-02-17T10:34:05.759Z,13.20
2023-02-17T10:36:45.431Z,13.30
2023-02-17T10:39:29.864Z,13.30
2023-02-17T10:42:01.698Z,13.20
2023-02-17T10:44:33.028Z,13.30
2023-02-17T10:47:02.943Z,13.30
2023-02-17T10:49:37.320Z,13.20
2023-02-17T10:52:16.537Z,13.20
2023-02-17T10:54:55.538Z,13.20
2023-02-17T10:57:27.548Z,13.20
2023-02-17T10:59:57.377Z,13.20
2023-02-17T11:02:37.990Z,13.30
2023-02-17T11:05:09.041Z,13.40
2023-02-17T11:07:42.216Z,13.40
2023-02-17T11:10:29.646Z,13.50
2023-02-17T11:12:59.792Z,13.40
2023-02-17T11:15:32.453Z,13.40
2023-02-17T11:18:04.118Z,13.40
2023-02-17T11:20:38.116Z,13.40
2023-02-17T11:23:23.235Z,13.50
2023-02-17T11:26:04.986Z,13.60
2023-02-17T11:28:34.948Z,13.50
2023-02-17T11:31:07.188Z,13.60
2023-02-17T11:33:40.529Z,13.60
2023-02-17T11:36:13.828Z,13.50
2023-02-17T11:38:48.603Z,13.50
2023-02-17T11:41:20.991Z,13.40
2023-02-17T11:43:58.661Z,13.40
2023-02-17T11:46:35.443Z,13.40
2023-02-17T11:49:36.410Z,13.40
2023-02-17T11:52:29.850Z,13.40
2023-02-17T11:55:18.192Z,13.40
2023-02-17T11:58:06.152Z,13.40
2023-02-17T12:00:46.509Z,13.40
2023-02-17T12:03:43.606Z,13.30
2023-02-17T12:06:19.779Z,13.30
2023-02-17T12:09:07.868Z,13.30
2023-02-17T12:11:46.719Z,13.30
2023-02-17T12:14:43.251Z,13.30
2023-02-17T12:17:21.309Z,13.40
2023-02-17T12:20:00.529Z,13.40
2023-02-17T12:22:35.808Z,13.40
2023-02-17T12:25:29.158Z,13.40
2023-02-17T12:28:13.219Z,13.50
2023-02-17T12:30:55.136Z,13.60
2023-02-17T12:33:37.521Z,13.60
2023-02-17T12:36:10.772Z,13.70
2023-02-17T12:38:46.471Z,13.80
2023-02-17T12:41:20.495Z,13.90
2023-02-17T12:43:54.273Z,14.00
2023-02-17T12:46:30.387Z,14.00
2023-02-17T12:49:07.498Z,14.10
2023-02-17T12:51:41.131Z,14.20
2023-02-17T12:54:20.055Z,14.30
2023-02-17T12:57:01.850Z,14.30
2023-02-17T12:59:36.694Z,14.20
2023-02-17T13:02:13.379Z,14.30
2023-02-17T13:04:47.839Z,14.40
2023-02-17T13:07:26.455Z,14.50
2023-02-17T13:09:59.044Z,14.50
2023-02-17T13:12:44.551Z,14.60
2023-02-17T13:15:30.903Z,14.70
2023-02-17T13:18:05.301Z,14.50
2023-02-17T13:20:54.439Z,14.60
2023-02-17T13:23:34.874Z,14.70
2023-02-17T13:26:26.774Z,14.80
2023-02-17T13:29:09.126Z,15.10
2023-02-17T13:31:52.706Z,15.20
2023-02-17T13:34:35.467Z,15.20
2023-02-17T13:37:18.341Z,15.00
2023-02-17T13:39:49.086Z,15.00
2023-02-17T13:42:37.691Z,14.90
2023-02-17T13:45:19.067Z,14.90
2023-02-17T13:47:50.365Z,14.80
2023-02-17T13:50:37.825Z,14.90
2023-02-17T13:53:25.181Z,15.10
2023-02-17T13:55:56.390Z,15.10
2023-02-17T13:58:28.496Z,15.00
2023-02-17T14:00:59.899Z,15.10
2023-02-17T14:03:31.369Z,15.20
2023-02-17T14:06:05.957Z,15.40
2023-02-17T14:08:39.251Z,15.50
2023-02-17T14:11:12.315Z,15.60
2023-02-17T14:13:45.559Z,15.80
2023-02-17T14:16:31.025Z,15.60
2023-02-17T14:19:06.062Z,15.60
2023-02-17T14:21:40.250Z,15.50
2023-02-17T14:24:11.843Z,15.60
2023-02-17T14:26:45.492Z,15.40
2023-02-17T14:29:17.535Z,15.40
2023-02-17T14:31:49.337Z,15.40
2023-02-17T14:34:29.063Z,15.40
2023-02-17T14:37:10.381Z,15.20
2023-02-17T14:39:40.206Z,15.20
2023-02-17T14:42:10.076Z,15.10
2023-02-17T14:44:39.902Z,15.10
2023-02-17T14:47:09.955Z,15.10
2023-02-17T14:49:39.764Z,15.10
2023-02-17T14:52:21.989Z,15.20
2023-02-17T14:54:51.998Z,15.20
2023-02-17T14:57:26.409Z,15.20
2023-02-17T14:59:57.854Z,15.10
2023-02-17T15:02:27.773Z,15.00
2023-02-17T15:04:57.601Z,15.00
2023-02-17T15:07:30.060Z,15.00
2023-02-17T15:09:59.860Z,14.80
2023-02-17T15:12:29.648Z,14.80
2023-02-17T15:14:59.367Z,14.70
2023-02-17T15:17:29.208Z,14.60
2023-02-17T15:19:59.049Z,14.60
2023-02-17T15:22:32.307Z,14.50
2023-02-17T15:25:02.146Z,14.50
2023-02-17T15:27:31.944Z,14.50
2023-02-17T15:30:01.738Z,14.50
2023-02-17T15:32:33.421Z,14.30
2023-02-17T15:35:03.276Z,14.30
2023-02-17T15:37:35.794Z,14.30
2023-02-17T15:40:05.821Z,14.20
2023-02-17T15:42:35.781Z,14.10
2023-02-17T15:45:05.606Z,14.10
2023-02-17T15:47:35.479Z,14.00
2023-02-17T15:50:05.411Z,14.00
2023-02-17T15:52:37.842Z,13.90
2023-02-17T15:55:08.646Z,13.90
2023-02-17T15:57:42.608Z,13.80
2023-02-17T16:00:20.362Z,13.70
2023-02-17T16:02:50.330Z,13.70
2023-02-17T16:05:22.607Z,13.60
2023-02-17T16:07:55.069Z,13.60
2023-02-17T16:10:27.172Z,13.50
2023-02-17T16:12:59.828Z,13.40
2023-02-17T16:15:33.126Z,13.40
2023-02-17T16:18:02.931Z,13.30
2023-02-17T16:20:35.298Z,13.20
2023-02-17T16:23:08.120Z,13.20
2023-02-17T16:25:38.723Z,13.10
2023-02-17T16:28:13.344Z,13.10
2023-02-17T16:30:43.358Z,13.10
2023-02-17T16:33:13.761Z,13.00
2023-02-17T16:35:43.618Z,13.00
2023-02-17T16:38:23.056Z,12.90
2023-02-17T16:40:55.397Z,13.00
2023-02-17T16:43:30.528Z,12.90
2023-02-17T16:46:02.879Z,12.90
2023-02-17T16:48:36.455Z,12.90
2023-02-17T16:51:06.344Z,12.90
2023-02-17T16:53:38.876Z,12.90
2023-02-17T16:56:17.805Z,12.90
2023-02-17T16:58:47.911Z,12.90
2023-02-17T17:01:17.664Z,13.00
2023-02-17T17:03:47.688Z,12.90
2023-02-17T17:06:23.031Z,12.90
2023-02-17T17:08:56.480Z,12.90
2023-02-17T17:11:28.504Z,12.80
2023-02-17T17:13:58.396Z,12.80
2023-02-17T17:16:31.675Z,12.80
2023-02-17T17:19:01.703Z,12.80
2023-02-17T17:21:31.659Z,12.80
2023-02-17T17:24:04.109Z,12.80
2023-02-17T17:26:36.049Z,12.70
2023-02-17T17:29:06.477Z,12.70
2023-02-17T17:31:36.954Z,12.70
2023-02-17T17:34:06.770Z,12.70
2023-02-17T17:36:38.539Z,12.70
2023-02-17T17:39:21.170Z,12.70
2023-02-17T17:41:51.414Z,12.70
2023-02-17T17:44:21.939Z,12.60
2023-02-17T17:46:51.799Z,12.60
2023-02-17T17:49:21.535Z,12.60
2023-02-17T17:51:51.256Z,12.50
2023-02-17T17:54:23.630Z,12.50
2023-02-17T17:56:53.443Z,12.60
2023-02-17T17:59:23.199Z,12.60
2023-02-17T18:01:52.995Z,12.70
2023-02-17T18:04:22.841Z,12.70
2023-02-17T18:06:54.419Z,12.70
2023-02-17T18:09:32.387Z,12.70
2023-02-17T18:12:07.001Z,12.70
2023-02-17T18:14:39.184Z,12.70
2023-02-17T18:17:10.706Z,12.70
2023-02-17T18:19:41.245Z,12.70
2023-02-17T18:22:11.043Z,12.70
2023-02-17T18:24:45.210Z,12.70
2023-02-17T18:27:14.964Z,12.70
2023-02-17T18:29:45.648Z,12.70
2023-02-17T18:32:15.475Z,12.60
2023-02-17T18:34:45.212Z,12.70
2023-02-17T18:37:15.964Z,12.60
2023-02-17T18:39:48.423Z,12.60
2023-02-17T18:42:18.206Z,12.60
2023-02-17T18:44:48.111Z,12.60
2023-02-17T18:47:17.900Z,12.60
2023-02-17T18:49:47.655Z,12.60
2023-02-17T18:52:17.483Z,12.60
2023-02-17T18:54:49.910Z,12.50
2023-02-17T18:57:20.306Z,12.50
2023-02-17T18:59:50.190Z,12.50
2023-02-17T19:02:21.979Z,12.50
2023-02-17T19:04:54.549Z,12.50
2023-02-17T19:07:24.870Z,12.40
2023-02-17T19:09:57.183Z,12.40
2023-02-17T19:12:27.012Z,12.30
2023-02-17T19:14:58.079Z,12.30
2023-02-17T19:17:28.586Z,12.20
2023-02-17T19:19:58.338Z,12.20
2023-02-17T19:22:28.075Z,12.10
2023-02-17T19:25:00.534Z,12.10
2023-02-17T19:27:30.639Z,12.00
2023-02-17T19:30:00.447Z,12.00
2023-02-17T19:32:30.874Z,11.90
2023-02-17T19:35:00.622Z,11.90
2023-02-17T19:37:30.481Z,11.90
2023-02-17T19:40:02.938Z,11.80
2023-02-17T19:42:32.964Z,11.90
2023-02-17T19:45:02.871Z,11.90
2023-02-17T19:47:33.307Z,11.90
2023-02-17T19:50:03.034Z,11.90
2023-02-17T19:52:32.841Z,11.80
2023-02-17T19:55:05.231Z,11.90
2023-02-17T19:57:35.005Z,11.90
2023-02-17T20:00:04.957Z,11.80
2023-02-17T20:02:34.804Z,11.80
2023-02-17T20:05:04.786Z,11.80
2023-02-17T20:07:34.547Z,11.80
2023-02-17T20:10:10.725Z,11.80
2023-02-17T20:12:40.920Z,11.80
2023-02-17T20:15:11.660Z,11.70
2023-02-17T20:17:41.663Z,11.70
2023-02-17T20:20:13.709Z,11.70
2023-02-17T20:22:43.507Z,11.70
2023-02-17T20:25:15.885Z,11.60
2023-02-17T20:27:45.627Z,11.70
2023-02-17T20:30:16.071Z,11.60
2023-02-17T20:32:45.886Z,11.60
2023-02-17T20:35:16.887Z,11.70
2023-02-17T20:37:46.717Z,11.70
2023-02-17T20:40:19.827Z,11.70
2023-02-17T20:42:49.553Z,11.70
2023-02-17T20:45:19.549Z,11.70
2023-02-17T20:47:49.308Z,11.70
2023-02-17T20:50:21.226Z,11.70
2023-02-17T20:52:51.317Z,11.70
2023-02-17T20:55:23.732Z,11.80
2023-02-17T20:57:53.577Z,11.70
2023-02-17T21:00:25.962Z,11.70
2023-02-17T21:02:55.934Z,11.70
2023-02-17T21:05:26.725Z,11.70
2023-02-17T21:07:57.974Z,11.70
2023-02-17T21:10:32.780Z,11.80
2023-02-17T21:13:02.664Z,11.80
2023-02-17T21:15:32.486Z,11.90
2023-02-17T21:18:02.316Z,12.00
2023-02-17T21:20:32.044Z,12.10
2023-02-17T21:23:01.758Z,12.10
2023-02-17T21:25:34.218Z,12.10
2023-02-17T21:28:03.949Z,12.10
2023-02-17T21:30:33.801Z,12.10
2023-02-17T21:33:03.623Z,12.10
2023-02-17T21:35:33.445Z,12.10
2023-02-17T21:38:03.196Z,12.10
2023-02-17T21:40:35.605Z,12.10
2023-02-17T21:43:18.441Z,12.10
2023-02-17T21:45:48.374Z,12.10
2023-02-17T21:48:18.148Z,12.00
2023-02-17T21:50:47.859Z,12.00
2023-02-17T21:53:17.588Z,12.00
2023-02-17T21:55:49.889Z,12.00
2023-02-17T21:58:19.635Z,12.10
2023-02-17T22:00:51.327Z,12.00
2023-02-17T22:03:21.111Z,12.00
2023-02-17T22:05:51.098Z,12.00
2023-02-17T22:08:21.106Z,12.00
2023-02-17T22:10:53.574Z,12.00
2023-02-17T22:13:23.316Z,12.00
2023-02-17T22:16:00.242Z,12.10
2023-02-17T22:18:32.750Z,12.10
2023-02-17T22:21:02.490Z,12.20
2023-02-17T22:23:32.275Z,12.20
2023-02-17T22:26:10.036Z,12.20
2023-02-17T22:28:40.278Z,12.30
2023-02-17T22:31:10.156Z,12.20
2023-02-17T22:33:39.972Z,12.20
2023-02-17T22:36:13.757Z,12.20
2023-02-17T22:38:43.931Z,12.30
2023-02-17T22:41:18.817Z,12.20
2023-02-17T22:43:50.818Z,12.30
2023-02-17T22:46:23.060Z,12.30
2023-02-17T22:48:53.980Z,12.30
2023-02-17T22:51:26.396Z,12.30
2023-02-17T22:53:56.287Z,12.20
2023-02-17T22:56:28.645Z,12.20
2023-02-17T22:59:00.960Z,12.30
2023-02-17T23:01:32.579Z,12.30
2023-02-17T23:04:03.177Z,12.20
2023-02-17T23:06:35.354Z,12.20
2023-02-17T23:09:06.076Z,12.20
2023-02-17T23:11:53.951Z,12.10
2023-02-17T23:14:26.877Z,12.10
2023-02-17T23:16:58.906Z,12.00
2023-02-17T23:19:29.033Z,12.00
2023-02-17T23:22:00.732Z,12.00
2023-02-17T23:24:31.205Z,11.90
2023-02-17T23:27:04.350Z,11.80
2023-02-17T23:29:34.924Z,11.90
2023-02-17T23:32:04.695Z,11.90
2023-02-17T23:34:34.437Z,11.90
2023-02-17T23:37:04.201Z,11.90
2023-02-17T23:39:34.001Z,11.90
2023-02-17T23:42:06.558Z,12.00
2023-02-17T23:44:36.562Z,12.00
2023-02-17T23:47:06.459Z,12.00
2023-02-17T23:49:36.193Z,12.00
2023-02-17T23:52:06.059Z,12.10
2023-02-17T23:54:35.842Z,12.10
2023-02-17T23:57:08.459Z,12.10
2023-02-17T23:59:38.348Z,12.00
